Time;durP1;ratioP1;P1;durP2;ratioP2;P2;SDS_P1;SDS_P2;PMS_P1;PMS_P2;Temp;Humidity;BMP_temperature;BMP_pressure;BME280_temperature;BME280_humidity;BME280_pressure;Samples;Min_cycle;Max_cycle;Signal;HPM_P1;HPM_P2
2022/10/04 00:02:01;;;;;;;1.82;0.42;;;;;;;6.52;94.22;98544.55;1769271;80;21080;-79
2022/10/04 00:04:35;;;;;;;0.50;0.50;;;;;;;6.52;94.00;98549.83;1772584;80;21516;-80
2022/10/04 00:07:09;;;;;;;1.67;0.78;;;;;;;6.49;93.34;98558.92;1775231;80;21841;-82
2022/10/04 00:09:53;;;;;;;0.50;0.50;;;;;;;6.52;93.77;98555.61;1774820;80;21057;-77
2022/10/04 00:12:34;;;;;;;0.40;0.40;;;;;;;6.51;93.51;98550.84;1761042;80;20983;-81
2022/10/04 00:15:08;;;;;;;0.50;0.50;;;;;;;6.51;93.95;98567.98;1770749;80;21565;-79
2022/10/04 00:17:35;;;;;;;1.12;0.60;;;;;;;6.53;94.07;98548.00;1756279;80;21046;-78
2022/10/04 00:20:03;;;;;;;0.78;0.70;;;;;;;6.47;93.88;98543.75;1778621;80;20946;-77
2022/10/04 00:22:31;;;;;;;2.00;0.50;;;;;;;6.45;94.41;98542.26;1740090;80;21319;-79
2022/10/04 00:25:13;;;;;;;0.50;0.50;;;;;;;6.48;94.56;98559.89;1767062;80;20998;-76
2022/10/04 00:27:42;;;;;;;0.95;0.50;;;;;;;6.49;94.87;98543.59;1772356;80;21036;-79
2022/10/04 00:30:17;;;;;;;0.60;0.60;;;;;;;6.49;94.88;98549.68;1768333;80;21050;-76
2022/10/04 00:33:00;;;;;;;0.53;0.50;;;;;;;6.42;94.75;98553.17;1778154;80;21071;-78
2022/10/04 00:35:34;;;;;;;0.50;0.50;;;;;;;6.47;94.97;98544.23;1767694;80;21140;-79
2022/10/04 00:38:16;;;;;;;0.50;0.50;;;;;;;6.52;95.18;98558.25;1778138;80;21033;-78
2022/10/04 00:40:47;;;;;;;1.00;0.67;;;;;;;6.55;95.30;98561.84;1761975;80;21775;-76
2022/10/04 00:43:38;;;;;;;2.05;0.65;;;;;;;6.55;95.41;98560.52;1767420;80;21052;-79
2022/10/04 00:46:14;;;;;;;0.72;0.72;;;;;;;6.55;95.57;98557.41;1768018;80;20993;-80
2022/10/04 00:49:02;;;;;;;0.80;0.80;;;;;;;6.56;95.75;98559.55;1765012;80;21074;-76
2022/10/04 00:51:39;;;;;;;0.70;0.62;;;;;;;6.56;95.69;98571.42;1767789;80;21005;-78
2022/10/04 00:54:43;;;;;;;1.32;0.80;;;;;;;6.54;95.83;98574.22;1760833;80;21049;-78
2022/10/04 00:57:18;;;;;;;0.82;0.70;;;;;;;6.56;96.25;98574.88;1764923;80;20982;-78
2022/10/04 00:59:47;;;;;;;2.83;0.80;;;;;;;6.55;96.20;98557.41;1760305;80;21052;-79
2022/10/04 01:02:34;;;;;;;1.10;0.60;;;;;;;6.56;96.06;98574.06;1757420;80;21268;-76
2022/10/04 01:05:16;;;;;;;2.22;0.80;;;;;;;6.59;96.54;98563.98;1757055;80;21060;-79
2022/10/04 01:07:50;;;;;;;0.70;0.70;;;;;;;6.63;96.78;98571.07;1768353;80;21028;-78
2022/10/04 01:10:28;;;;;;;1.85;0.70;;;;;;;6.67;96.89;98565.77;1769334;80;21041;-77
2022/10/04 01:13:17;;;;;;;1.07;0.70;;;;;;;6.71;96.21;98570.21;1772195;80;21053;-78
2022/10/04 01:16:10;;;;;;;0.53;0.53;;;;;;;6.73;96.29;98585.38;1765383;80;21448;-79
2022/10/04 01:18:36;;;;;;;0.60;0.60;;;;;;;6.72;96.63;98570.02;1770330;80;21660;-78
2022/10/04 01:21:25;;;;;;;0.62;0.53;;;;;;;6.74;96.63;98568.05;1760601;80;21580;-77
2022/10/04 01:24:01;;;;;;;0.88;0.85;;;;;;;6.78;96.70;98566.72;1759157;80;21090;-77
2022/10/04 01:26:35;;;;;;;1.20;0.70;;;;;;;6.76;96.68;98571.81;1756266;80;21078;-78
2022/10/04 01:29:28;;;;;;;1.05;0.82;;;;;;;6.71;96.81;98566.25;1763795;80;21634;-77
2022/10/04 01:31:57;;;;;;;1.17;0.88;;;;;;;6.72;96.58;98570.52;1761432;80;21574;-79
2022/10/04 01:34:26;;;;;;;0.68;0.60;;;;;;;6.72;97.01;98564.73;1779942;80;21084;-80
2022/10/04 01:36:55;;;;;;;1.37;0.93;;;;;;;6.79;97.45;98576.77;1766777;80;21579;-78
2022/10/04 01:39:23;;;;;;;1.17;0.70;;;;;;;6.82;97.39;98577.25;1761298;80;21019;-77
2022/10/04 01:42:21;;;;;;;0.55;0.55;;;;;;;6.83;96.17;98587.30;1770181;80;21196;-79
2022/10/04 01:44:59;;;;;;;1.27;0.70;;;;;;;6.81;95.66;98588.79;1743671;80;21033;-78
2022/10/04 01:47:36;;;;;;;0.95;0.80;;;;;;;6.80;97.13;98586.31;1771016;80;21006;-76
2022/10/04 01:50:08;;;;;;;1.95;0.90;;;;;;;6.77;97.48;98589.31;1777525;80;21065;-78
2022/10/04 01:53:00;;;;;;;0.80;0.80;;;;;;;6.77;98.16;98589.31;1764324;80;21422;-78
2022/10/04 01:55:29;;;;;;;0.70;0.70;;;;;;;6.80;98.80;98587.16;1765034;80;22096;-78
2022/10/04 01:58:00;;;;;;;1.15;0.60;;;;;;;6.80;99.01;98592.44;1770308;80;21410;-79
2022/10/04 02:00:28;;;;;;;0.65;0.65;;;;;;;6.80;99.43;98596.40;1767692;80;21576;-76
2022/10/04 02:03:01;;;;;;;3.05;0.60;;;;;;;6.84;99.72;98604.30;1728711;80;21568;-77
2022/10/04 02:05:41;;;;;;;0.50;0.50;;;;;;;6.85;99.87;98600.64;1739981;80;21098;-80
2022/10/04 02:08:12;;;;;;;0.62;0.60;;;;;;;6.86;100.00;98606.77;1770166;80;21205;-77
2022/10/04 02:10:39;;;;;;;1.35;1.05;;;;;;;6.88;100.00;98609.55;1768312;80;21104;-78
2022/10/04 02:13:13;;;;;;;3.47;0.90;;;;;;;6.92;100.00;98606.58;1765403;80;21063;-78
2022/10/04 02:15:40;;;;;;;2.67;1.32;;;;;;;6.98;100.00;98609.84;1764250;80;20976;-78
2022/10/04 02:18:15;;;;;;;2.58;0.95;;;;;;;7.04;100.00;98617.89;1758661;80;21557;-80
2022/10/04 02:20:41;;;;;;;1.15;0.78;;;;;;;7.08;100.00;98627.11;1756507;80;21048;-79
2022/10/04 02:23:09;;;;;;;1.00;0.80;;;;;;;7.11;100.00;98622.47;1741214;81;21037;-78
2022/10/04 02:25:36;;;;;;;1.17;0.60;;;;;;;7.12;100.00;98622.30;1746423;80;21028;-76
2022/10/04 02:28:10;;;;;;;1.32;0.53;;;;;;;7.12;100.00;98616.21;1756005;80;21059;-77
2022/10/04 02:30:42;;;;;;;0.75;0.70;;;;;;;7.08;100.00;98620.50;1754269;80;21041;-78
2022/10/04 02:33:12;;;;;;;0.80;0.80;;;;;;;7.09;100.00;98626.63;1762218;80;21575;-81
2022/10/04 02:35:45;;;;;;;1.25;0.90;;;;;;;7.10;100.00;98626.94;1759101;80;20993;-79
2022/10/04 02:38:22;;;;;;;1.98;0.62;;;;;;;7.09;100.00;98637.20;1761375;80;21048;-81
2022/10/04 02:41:07;;;;;;;1.00;0.55;;;;;;;6.99;100.00;98638.73;1751644;80;21092;-80
2022/10/04 02:43:54;;;;;;;0.50;0.50;;;;;;;6.96;100.00;98637.73;1704085;83;21267;-80
2022/10/04 02:46:26;;;;;;;1.07;0.60;;;;;;;6.95;100.00;98646.64;1749460;80;21097;-78
2022/10/04 02:48:57;;;;;;;0.40;0.40;;;;;;;6.91;100.00;98647.17;1760436;80;21026;-80
2022/10/04 02:51:37;;;;;;;0.55;0.50;;;;;;;6.91;100.00;98651.13;1773092;80;21014;-80
2022/10/04 02:54:30;;;;;;;0.55;0.45;;;;;;;6.89;100.00;98644.22;1749600;80;21041;-77
2022/10/04 02:56:57;;;;;;;1.77;0.90;;;;;;;6.81;100.00;98653.47;1765927;80;22092;-79
2022/10/04 02:59:23;;;;;;;1.98;1.00;;;;;;;6.77;100.00;98661.91;1741311;80;21226;-80
2022/10/04 03:01:57;;;;;;;0.65;0.65;;;;;;;6.76;100.00;98661.09;1761387;80;21088;-78
2022/10/04 03:04:33;;;;;;;0.75;0.70;;;;;;;6.75;100.00;98654.16;1766727;80;21043;-79
2022/10/04 03:07:01;;;;;;;0.45;0.45;;;;;;;6.75;100.00;98650.19;1764751;80;21006;-78
2022/10/04 03:09:27;;;;;;;0.70;0.55;;;;;;;6.68;100.00;98657.98;1754527;80;21006;-77
2022/10/04 03:11:55;;;;;;;0.40;0.40;;;;;;;6.66;100.00;98662.61;1760954;80;21574;-77
2022/10/04 03:14:25;;;;;;;1.70;0.55;;;;;;;6.65;100.00;98659.63;1752941;80;20986;-78
2022/10/04 03:16:56;;;;;;;0.68;0.40;;;;;;;6.63;100.00;98652.87;1770199;80;21040;-76
2022/10/04 03:19:25;;;;;;;0.45;0.40;;;;;;;6.61;100.00;98668.88;1760668;80;21616;-78
2022/10/04 03:21:55;;;;;;;0.60;0.50;;;;;;;6.59;100.00;98660.81;1759981;80;21029;-77
2022/10/04 03:24:31;;;;;;;0.50;0.50;;;;;;;6.56;100.00;98669.88;1769183;80;21449;-79
2022/10/04 03:27:02;;;;;;;0.50;0.50;;;;;;;6.53;100.00;98683.42;1757508;80;21086;-82
2022/10/04 03:29:30;;;;;;;0.57;0.50;;;;;;;6.55;100.00;98673.98;1744657;80;21079;-79
2022/10/04 03:31:57;;;;;;;0.30;0.30;;;;;;;6.56;100.00;98675.66;1724801;80;21100;-79
2022/10/04 03:34:29;;;;;;;0.65;0.40;;;;;;;6.55;100.00;98676.16;1736396;80;21552;-80
2022/10/04 03:36:57;;;;;;;2.45;0.53;;;;;;;6.57;100.00;98681.27;1773274;80;21648;-82
2022/10/04 03:39:32;;;;;;;0.57;0.57;;;;;;;6.55;100.00;98682.75;1758815;80;21010;-77
2022/10/04 03:42:24;;;;;;;1.35;0.62;;;;;;;6.58;100.00;98683.72;1764983;80;21029;-82
2022/10/04 03:44:55;;;;;;;0.57;0.53;;;;;;;6.59;100.00;98689.34;1759431;80;21022;-81
2022/10/04 03:47:30;;;;;;;0.50;0.40;;;;;;;6.57;100.00;98694.47;1752152;80;21069;-82
2022/10/04 03:50:01;;;;;;;0.45;0.45;;;;;;;6.56;100.00;98692.30;1770782;80;21137;-80
2022/10/04 03:54:27;;;;;;;0.57;0.57;;;;;;;6.61;100.00;98688.67;1860820;75;26475;-83
2022/10/04 03:56:56;;;;;;;0.70;0.60;;;;;;;6.54;100.00;98700.06;1852382;77;20961;-80
2022/10/04 03:59:24;;;;;;;0.72;0.60;;;;;;;6.55;100.00;98691.14;1840972;77;21194;-84
2022/10/04 04:02:13;;;;;;;1.42;0.60;;;;;;;6.57;100.00;98707.16;1839851;77;20989;-79
2022/10/04 04:05:04;;;;;;;0.85;0.62;;;;;;;6.55;100.00;98710.46;1840188;77;21024;-82
2022/10/04 04:07:39;;;;;;;0.75;0.60;;;;;;;6.56;100.00;98704.17;1758963;79;20977;-80
2022/10/04 04:10:25;;;;;;;2.05;0.57;;;;;;;6.52;100.00;98713.42;1816511;78;20890;-81
2022/10/04 04:12:56;;;;;;;1.35;0.68;;;;;;;6.50;100.00;98716.22;1790987;78;21092;-83
2022/10/04 04:15:29;;;;;;;0.98;0.65;;;;;;;6.52;100.00;98716.56;1777026;80;21001;-84
2022/10/04 04:17:57;;;;;;;1.57;0.90;;;;;;;6.45;100.00;98715.91;1779576;80;21056;-84
2022/10/04 04:20:29;;;;;;;1.20;0.70;;;;;;;6.46;100.00;98714.91;1789160;80;21092;-82
2022/10/04 04:23:17;;;;;;;1.45;1.12;;;;;;;6.50;100.00;98725.45;1808940;78;22137;-82
2022/10/04 04:25:47;;;;;;;1.07;0.90;;;;;;;6.53;100.00;98726.11;1821029;78;22129;-80
2022/10/04 04:28:33;;;;;;;1.20;1.00;;;;;;;6.54;100.00;98723.31;1801023;78;21482;-82
2022/10/04 04:31:05;;;;;;;1.42;0.80;;;;;;;6.56;100.00;98729.24;1811880;78;21611;-82
2022/10/04 04:33:40;;;;;;;1.35;0.90;;;;;;;6.57;100.00;98740.14;1808997;78;21071;-81
2022/10/04 04:36:13;;;;;;;1.40;0.80;;;;;;;6.62;100.00;98734.35;1778385;78;21076;-81
2022/10/04 04:41:34;;;;;;;0.90;0.80;;;;;;;6.64;100.00;98732.36;1786739;80;21057;-78
2022/10/04 04:44:00;;;;;;;0.62;0.62;;;;;;;6.66;100.00;98743.58;1766240;78;21051;-81
2022/10/04 04:46:27;;;;;;;1.00;0.82;;;;;;;6.61;100.00;98755.15;1787447;78;21013;-79
2022/10/04 04:49:00;;;;;;;0.75;0.75;;;;;;;6.60;100.00;98756.94;1815628;78;21038;-80
2022/10/04 04:51:27;;;;;;;1.52;0.90;;;;;;;6.66;100.00;98755.45;1790561;78;21330;-80
2022/10/04 04:53:54;;;;;;;1.00;0.70;;;;;;;6.67;100.00;98757.94;1807768;78;21526;-82
2022/10/04 04:56:25;;;;;;;1.17;0.72;;;;;;;6.65;100.00;98772.30;1747830;80;21549;-81
2022/10/04 04:58:53;;;;;;;1.82;0.65;;;;;;;6.71;100.00;98768.17;1764940;80;21054;-79
2022/10/04 05:01:34;;;;;;;1.55;0.82;;;;;;;6.75;100.00;98766.84;1780463;78;21739;-82
2022/10/04 05:04:15;;;;;;;1.22;1.00;;;;;;;6.78;100.00;98777.05;1803272;78;21107;-80
2022/10/04 05:06:44;;;;;;;2.30;0.85;;;;;;;6.79;100.00;98789.27;1820954;78;20986;-80
2022/10/04 05:09:32;;;;;;;1.60;1.10;;;;;;;6.85;100.00;98789.91;1798936;78;21559;-82
2022/10/04 05:12:16;;;;;;;2.35;1.50;;;;;;;6.89;100.00;98797.34;1770810;80;21007;-78
2022/10/04 05:14:49;;;;;;;2.92;1.57;;;;;;;6.86;100.00;98783.66;1760186;80;21179;-79
2022/10/04 05:17:23;;;;;;;4.97;1.75;;;;;;;6.87;100.00;98788.74;1801884;78;21439;-79
2022/10/04 05:19:52;;;;;;;2.55;1.75;;;;;;;6.88;100.00;98793.55;1812595;78;21541;-81
2022/10/04 05:22:22;;;;;;;2.35;1.42;;;;;;;6.92;100.00;98798.01;1777134;80;21018;-80
2022/10/04 05:24:53;;;;;;;3.02;1.80;;;;;;;6.94;100.00;98811.36;1790167;78;21084;-78
2022/10/04 05:27:41;;;;;;;1.40;1.10;;;;;;;6.99;100.00;98807.73;1778324;79;21065;-82
2022/10/04 05:30:19;;;;;;;2.37;0.98;;;;;;;7.03;100.00;98815.64;1784832;79;21479;-78
2022/10/04 05:33:08;;;;;;;1.22;0.90;;;;;;;7.09;100.00;98823.39;1751812;80;21022;-80
2022/10/04 05:36:15;;;;;;;1.12;0.90;;;;;;;7.11;99.50;98818.77;1779905;79;21096;-80
2022/10/04 05:38:52;;;;;;;1.27;1.00;;;;;;;7.12;99.66;98820.90;1780776;79;21079;-80
2022/10/04 05:41:48;;;;;;;1.60;1.10;;;;;;;7.13;99.14;98827.81;1801040;78;21504;-80
2022/10/04 05:44:32;;;;;;;1.87;1.00;;;;;;;7.09;98.72;98833.95;1782940;78;21809;-80
2022/10/04 05:46:59;;;;;;;17.35;2.27;;;;;;;7.12;99.47;98840.20;1767309;80;21004;-80
2022/10/04 05:49:33;;;;;;;2.12;1.10;;;;;;;7.15;99.76;98827.99;1782828;80;21011;-80
2022/10/04 05:52:09;;;;;;;1.35;1.10;;;;;;;7.20;100.00;98826.16;1775073;79;20997;-80
2022/10/04 05:54:37;;;;;;;1.55;1.10;;;;;;;7.25;100.00;98825.16;1796801;79;21039;-79
2022/10/04 05:57:30;;;;;;;1.98;1.05;;;;;;;7.34;100.00;98828.59;1798514;79;21098;-82
2022/10/04 06:00:19;;;;;;;2.90;1.80;;;;;;;7.39;99.25;98836.34;1771534;79;21056;-78
2022/10/04 06:03:19;;;;;;;1.98;1.27;;;;;;;7.45;98.66;98834.84;1793951;79;21028;-76
2022/10/04 06:06:02;;;;;;;3.33;1.40;;;;;;;7.50;99.36;98826.42;1782200;79;21091;-76
2022/10/04 06:08:37;;;;;;;1.42;1.25;;;;;;;7.60;99.73;98836.28;1807523;78;21084;-76
2022/10/04 06:11:31;;;;;;;2.80;1.32;;;;;;;7.68;99.90;98836.24;1778721;78;21606;-78
2022/10/04 06:14:09;;;;;;;1.90;1.20;;;;;;;7.74;97.81;98851.41;1796500;78;21073;-77
2022/10/04 06:17:13;;;;;;;2.15;1.65;;;;;;;7.80;97.98;98848.58;1807533;78;21061;-78
2022/10/04 06:19:56;;;;;;;5.08;2.27;;;;;;;7.81;96.85;98858.17;1798613;78;21086;-77
2022/10/04 06:22:25;;;;;;;1.75;1.40;;;;;;;7.80;96.07;98865.30;1798805;78;21114;-76
2022/10/04 06:25:08;;;;;;;2.15;1.30;;;;;;;7.85;97.18;98868.23;1798658;78;21103;-74
2022/10/04 06:28:04;;;;;;;2.70;1.22;;;;;;;7.91;97.40;98860.61;1803418;78;21132;-77
2022/10/04 06:30:35;;;;;;;1.85;1.20;;;;;;;7.98;97.48;98867.69;1815007;78;21092;-76
2022/10/04 06:33:45;;;;;;;2.27;1.30;;;;;;;8.08;97.02;98877.55;1812450;78;22186;-77
2022/10/04 06:36:17;;;;;;;1.67;1.27;;;;;;;8.14;97.66;98875.22;1783248;78;21012;-77
2022/10/04 06:39:04;;;;;;;3.45;1.62;;;;;;;8.27;96.55;98880.26;1806010;78;21141;-77
2022/10/04 06:42:07;;;;;;;1.22;1.12;;;;;;;8.39;96.79;98885.98;1774861;79;21008;-75
2022/10/04 06:44:48;;;;;;;1.52;1.30;;;;;;;8.46;94.87;98894.09;1800544;78;21050;-75
2022/10/04 06:47:34;;;;;;;2.55;1.20;;;;;;;8.51;94.17;98896.20;1829896;78;21016;-76
2022/10/04 06:50:25;;;;;;;3.80;1.45;;;;;;;8.51;92.58;98908.11;1714706;79;21225;-77
2022/10/04 06:53:15;;;;;;;3.37;1.40;;;;;;;8.56;93.90;98911.06;1819262;78;21200;-76
2022/10/04 06:56:04;;;;;;;2.67;1.37;;;;;;;8.54;92.50;98908.59;1808471;78;21580;-77
2022/10/04 06:58:42;;;;;;;1.42;1.30;;;;;;;8.61;92.76;98913.99;1780824;78;22376;-76
2022/10/04 07:01:28;;;;;;;1.80;1.30;;;;;;;8.68;93.63;98918.10;1776845;78;21033;-74
2022/10/04 07:04:06;;;;;;;2.58;1.57;;;;;;;8.71;93.54;98921.70;1805647;78;21057;-74
2022/10/04 07:06:46;;;;;;;3.13;1.73;;;;;;;8.73;92.54;98922.34;1801187;78;21101;-75
2022/10/04 07:09:22;;;;;;;2.10;1.90;;;;;;;8.82;92.90;98922.11;1815303;77;21092;-74
2022/10/04 07:12:03;;;;;;;1.90;1.30;;;;;;;8.93;91.81;98933.31;1798682;78;21062;-75
2022/10/04 07:14:34;;;;;;;4.72;1.60;;;;;;;8.97;91.04;98939.91;1806679;78;21092;-75
2022/10/04 07:17:18;;;;;;;3.33;1.67;;;;;;;8.97;91.54;98927.98;1787065;78;21033;-73
2022/10/04 07:19:50;;;;;;;1.75;1.50;;;;;;;8.99;91.18;98937.90;1785197;79;21098;-75
2022/10/04 07:22:38;;;;;;;2.33;1.42;;;;;;;9.00;91.37;98956.75;1799476;78;21037;-73
2022/10/04 07:25:27;;;;;;;2.25;1.52;;;;;;;9.01;91.46;98947.31;1813670;78;21000;-73
2022/10/04 07:31:27;;;;;;;1.75;1.40;;;;;;;8.98;90.25;98954.30;1770995;79;21060;-73
2022/10/04 07:33:59;;;;;;;3.22;1.90;;;;;;;8.95;90.22;98952.50;1795125;78;21134;-73
2022/10/04 07:36:42;;;;;;;2.10;1.62;;;;;;;8.93;90.81;98961.12;1784806;78;21053;-73
2022/10/04 07:39:17;;;;;;;3.75;1.80;;;;;;;8.94;90.69;98966.73;1799450;78;21086;-74
2022/10/04 07:42:02;;;;;;;3.00;2.00;;;;;;;8.85;90.40;98972.09;1807947;78;21024;-72
2022/10/04 07:44:39;;;;;;;3.37;1.52;;;;;;;8.85;90.42;98972.61;1760159;79;21016;-74
2022/10/04 07:47:23;;;;;;;2.25;1.62;;;;;;;8.86;90.26;98979.53;1770630;79;21111;-74
2022/10/04 07:49:49;;;;;;;;;;;;;;;8.82;91.03;98979.05;1802654;78;21044;-73
2022/10/04 07:52:24;;;;;;;3.85;2.02;;;;;;;8.88;91.54;98985.48;1823138;78;20218;-73
2022/10/04 07:55:27;;;;;;;1.77;1.35;;;;;;;8.92;90.85;98985.95;1777839;79;21010;-74
2022/10/04 07:58:09;;;;;;;2.77;1.80;;;;;;;8.88;90.23;98991.28;1761237;80;21033;-74
2022/10/04 08:01:03;;;;;;;2.65;1.87;;;;;;;8.90;90.51;98987.45;1742310;80;22292;-74
2022/10/04 08:04:03;;;;;;;;;;;;;;;8.94;90.44;98989.25;1764554;80;21065;-73
2022/10/04 08:06:38;;;;;;;4.22;1.70;;;;;;;8.94;90.51;98991.91;1787019;80;20199;-74
2022/10/04 08:09:34;;;;;;;2.22;1.57;;;;;;;8.97;90.53;99003.48;1771221;80;21025;-73
2022/10/04 08:12:23;;;;;;;3.02;2.00;;;;;;;9.01;90.28;98996.83;1763363;80;21644;-72
2022/10/04 08:15:08;;;;;;;3.17;1.75;;;;;;;9.02;90.12;99013.88;1773883;80;21385;-75
2022/10/04 08:18:01;;;;;;;4.55;1.72;;;;;;;9.03;90.87;98996.97;1768371;80;21447;-79
2022/10/04 08:21:04;;;;;;;3.70;3.00;;;;;;;9.10;90.33;99009.50;1749512;80;21067;-76
2022/10/04 08:24:05;;;;;;;2.92;1.98;;;;;;;9.07;90.29;99010.69;1746202;81;21128;-74
2022/10/04 08:26:53;;;;;;;4.17;1.75;;;;;;;9.09;89.77;99019.28;1758921;81;21084;-73
2022/10/04 08:29:54;;;;;;;4.03;1.80;;;;;;;9.12;89.69;99018.95;1764204;81;21236;-74
2022/10/04 08:32:45;;;;;;;2.42;1.80;;;;;;;9.11;89.95;99022.58;1751110;81;21053;-73
2022/10/04 08:35:27;;;;;;;2.95;1.70;;;;;;;9.07;89.53;99029.75;1771195;80;21045;-74
2022/10/04 08:38:20;;;;;;;6.00;1.70;;;;;;;9.11;89.97;99025.23;1742183;81;21120;-73
2022/10/04 08:40:58;;;;;;;3.08;1.80;;;;;;;9.11;90.21;99041.13;1750673;80;21152;-73
2022/10/04 08:43:55;;;;;;;2.30;1.87;;;;;;;9.14;90.18;99039.97;1763830;80;21113;-75
2022/10/04 08:46:34;;;;;;;6.65;1.80;;;;;;;9.19;89.80;99032.30;1757791;81;21057;-75
2022/10/04 08:49:36;;;;;;;3.40;1.65;;;;;;;9.15;89.42;99048.23;1755499;81;22062;-74
2022/10/04 08:52:57;;;;;;;3.30;2.35;;;;;;;9.16;88.19;99054.69;1767771;80;21030;-75
2022/10/04 08:56:02;;;;;;;3.02;1.95;;;;;;;9.08;89.53;99057.40;1778366;78;21060;-76
2022/10/04 08:58:40;;;;;;;3.60;2.20;;;;;;;9.08;89.46;99062.70;1805875;78;21556;-73
2022/10/04 09:01:28;;;;;;;3.77;2.00;;;;;;;9.08;89.34;99073.30;1778963;79;20997;-74
2022/10/04 09:04:40;;;;;;;5.47;2.37;;;;;;;9.01;89.31;99062.55;1804101;78;21235;-73
2022/10/04 09:07:48;;;;;;;4.77;2.60;;;;;;;9.08;89.68;99073.77;1811003;78;21080;-75
2022/10/04 09:10:44;;;;;;;3.17;2.45;;;;;;;9.07;89.87;99068.98;1787069;79;20999;-75
2022/10/04 09:13:49;;;;;;;3.52;2.60;;;;;;;9.15;89.25;99077.38;1777981;79;21530;-76
2022/10/04 09:16:46;;;;;;;3.25;2.45;;;;;;;9.21;90.22;99087.28;1818509;77;21005;-75
2022/10/04 09:19:47;;;;;;;5.58;2.40;;;;;;;9.28;89.78;99091.39;1768024;79;21076;-77
2022/10/04 09:22:35;;;;;;;5.62;3.27;;;;;;;9.33;89.44;99088.55;1772894;79;21512;-74
2022/10/04 09:25:25;;;;;;;6.15;2.92;;;;;;;9.34;88.22;99098.12;1815198;77;21021;-74
2022/10/04 09:28:21;;;;;;;4.15;2.70;;;;;;;9.42;88.63;99094.59;1806531;78;21119;-71
2022/10/04 09:31:28;;;;;;;4.70;2.80;;;;;;;9.45;88.33;99114.14;1780879;79;21045;-73
2022/10/04 09:34:21;;;;;;;5.25;3.50;;;;;;;9.44;87.63;99119.11;1801609;78;21001;-77
2022/10/04 09:37:22;;;;;;;5.10;3.42;;;;;;;9.45;88.11;99114.14;1802989;78;21744;-78
2022/10/04 09:40:24;;;;;;;5.58;2.90;;;;;;;9.41;88.55;99118.97;1813839;78;21228;-77
2022/10/04 09:43:32;;;;;;;4.70;3.10;;;;;;;9.45;88.17;99118.94;1812217;78;21093;-78
2022/10/04 09:46:20;;;;;;;4.67;2.83;;;;;;;9.48;88.19;99117.75;1803682;78;21469;-78
2022/10/04 09:49:09;;;;;;;4.80;3.25;;;;;;;9.43;87.79;99126.24;1794442;79;21033;-77
2022/10/04 09:52:07;;;;;;;5.95;3.17;;;;;;;9.48;88.09;99123.56;1788656;79;21141;-77
2022/10/04 09:55:05;;;;;;;4.10;2.65;;;;;;;9.51;88.17;99128.52;1815280;78;21057;-76
2022/10/04 09:58:00;;;;;;;3.47;3.12;;;;;;;9.53;88.01;99134.47;1767989;80;21184;-78
2022/10/04 10:00:45;;;;;;;6.37;2.98;;;;;;;9.58;87.36;99130.77;1775455;79;21053;-78
2022/10/04 10:03:40;;;;;;;3.87;2.90;;;;;;;9.62;88.16;99145.36;1800529;78;21062;-74
2022/10/04 10:06:26;;;;;;;4.95;3.27;;;;;;;9.55;87.57;99141.24;1774488;80;21057;-74
2022/10/04 10:09:17;;;;;;;3.75;2.92;;;;;;;9.61;87.32;99148.48;1805018;78;21037;-75
2022/10/04 10:15:29;;;;;;;6.83;2.87;;;;;;;9.69;86.97;99162.70;1808511;78;21064;-73
2022/10/04 10:18:22;;;;;;;4.80;3.45;;;;;;;9.70;87.11;99163.05;1762177;79;21635;-73
2022/10/04 10:21:13;;;;;;;3.85;3.00;;;;;;;9.67;87.65;99163.37;1774949;80;21077;-73
2022/10/04 10:24:04;;;;;;;3.60;2.92;;;;;;;9.68;87.44;99163.21;1801823;78;21552;-74
2022/10/04 10:26:48;;;;;;;3.62;3.20;;;;;;;9.72;87.53;99161.03;1760672;78;21615;-74
2022/10/04 10:29:34;;;;;;;;;;;;;;;9.70;87.49;99167.84;1807455;78;21025;-77
2022/10/04 10:32:58;;;;;;;3.72;3.27;;;;;;;9.80;87.74;99166.27;1807784;78;20479;-72
2022/10/04 10:35:43;;;;;;;5.58;3.25;;;;;;;9.86;87.21;99172.19;1797999;78;21056;-77
2022/10/04 10:38:37;;;;;;;3.72;2.83;;;;;;;9.79;87.08;99168.59;1808501;78;20996;-77
2022/10/04 10:41:41;;;;;;;2.42;2.20;;;;;;;9.82;86.56;99174.88;1766908;80;21200;-77
2022/10/04 10:44:42;;;;;;;4.70;3.33;;;;;;;9.84;86.57;99180.32;1783718;80;21530;-77
2022/10/04 10:47:46;;;;;;;5.60;2.50;;;;;;;9.78;86.66;99183.69;1776387;80;21029;-77
2022/10/04 10:50:58;;;;;;;6.37;3.27;;;;;;;9.77;87.57;99183.86;1744311;78;21091;-77
2022/10/04 10:53:54;;;;;;;4.35;3.25;;;;;;;9.84;87.17;99200.22;1775110;78;21049;-76
2022/10/04 10:56:42;;;;;;;4.62;3.20;;;;;;;9.84;86.92;99184.81;1776781;78;21290;-73
2022/10/04 10:59:42;;;;;;;4.45;2.85;;;;;;;9.95;87.08;99183.08;1750531;81;21313;-75
2022/10/04 11:02:45;;;;;;;4.35;3.08;;;;;;;10.04;86.80;99182.49;1759948;81;21669;-73
2022/10/04 11:05:35;;;;;;;5.55;2.98;;;;;;;9.99;85.99;99184.36;1757333;81;21072;-73
2022/10/04 11:08:47;;;;;;;7.83;4.28;;;;;;;9.94;86.45;99193.34;1748255;81;21104;-79
2022/10/04 11:11:45;;;;;;;4.75;3.37;;;;;;;9.93;85.81;99181.09;1747397;81;21251;-78
2022/10/04 11:14:32;;;;;;;3.60;2.98;;;;;;;9.84;86.03;99182.16;1759701;80;21060;-76
2022/10/04 11:17:22;;;;;;;5.53;3.85;;;;;;;9.90;86.43;99189.41;1749364;79;21161;-78
2022/10/04 11:20:30;;;;;;;4.78;3.45;;;;;;;9.90;86.74;99191.23;1758035;81;21084;-72
2022/10/04 11:23:31;;;;;;;4.40;3.10;;;;;;;9.92;86.08;99196.68;1749974;80;21569;-74
2022/10/04 11:26:27;;;;;;;4.28;3.52;;;;;;;9.88;86.31;99205.19;1761321;80;21605;-77
2022/10/04 11:29:32;;;;;;;4.92;3.33;;;;;;;9.74;87.80;99208.09;1709962;81;21689;-74
2022/10/04 11:32:18;;;;;;;4.22;3.67;;;;;;;9.69;89.08;99203.30;1760124;81;20994;-73
2022/10/04 11:35:29;;;;;;;7.90;4.10;;;;;;;9.55;90.06;99206.20;1705984;81;21013;-75
2022/10/04 11:38:36;;;;;;;5.50;3.20;;;;;;;9.44;91.32;99203.95;1756501;80;22104;-76
2022/10/04 11:41:22;;;;;;;5.60;3.80;;;;;;;9.41;91.58;99202.98;1750083;81;21187;-76
2022/10/04 11:44:20;;;;;;;5.75;3.92;;;;;;;9.28;92.63;99209.34;1746994;81;21013;-75
2022/10/04 11:47:10;;;;;;;4.83;3.83;;;;;;;9.27;93.33;99203.19;1749488;81;21057;-76
2022/10/04 11:49:45;;;;;;;4.92;4.42;;;;;;;9.35;93.27;99216.91;1754956;81;21010;-76
2022/10/04 11:52:51;;;;;;;6.60;4.90;;;;;;;9.37;93.80;99213.61;1747945;80;21102;-77
2022/10/04 11:56:06;;;;;;;4.67;3.42;;;;;;;9.42;92.38;99216.55;1738275;80;21122;-76
2022/10/04 11:58:53;;;;;;;7.15;3.50;;;;;;;9.42;89.66;99216.55;1699073;80;21038;-76
2022/10/04 12:01:40;;;;;;;6.28;3.27;;;;;;;9.40;91.22;99215.90;1793277;78;21033;-76
2022/10/04 12:04:36;;;;;;;9.43;4.35;;;;;;;9.49;91.64;99218.84;1806897;78;21029;-77
2022/10/04 12:07:26;;;;;;;3.52;2.90;;;;;;;9.50;91.42;99216.50;1787377;79;20987;-76
2022/10/04 12:10:26;;;;;;;5.30;3.58;;;;;;;9.45;89.70;99222.84;1774969;78;21068;-78
2022/10/04 12:13:30;;;;;;;4.28;3.25;;;;;;;9.51;89.28;99231.42;1797063;78;21057;-79
2022/10/04 12:16:31;;;;;;;3.83;2.95;;;;;;;9.57;89.95;99223.28;1783089;78;21718;-79
2022/10/04 12:19:52;;;;;;;3.77;3.33;;;;;;;9.59;90.21;99227.40;1812907;78;21041;-78
2022/10/04 12:22:34;;;;;;;4.72;3.50;;;;;;;9.64;89.27;99222.91;1774427;78;21058;-76
2022/10/04 12:25:45;;;;;;;5.70;3.17;;;;;;;9.64;89.13;99226.39;1731888;80;21111;-80
2022/10/04 12:28:35;;;;;;;4.72;3.30;;;;;;;9.74;88.56;99225.34;1812893;78;21029;-78
2022/10/04 12:31:20;;;;;;;3.20;2.75;;;;;;;9.85;86.04;99218.31;1783483;80;21089;-78
2022/10/04 12:34:20;;;;;;;5.70;3.50;;;;;;;9.87;86.08;99220.28;1811966;78;20983;-79
2022/10/04 12:37:18;;;;;;;4.15;3.00;;;;;;;10.00;86.12;99232.95;1781931;79;20994;-78
2022/10/04 12:40:10;;;;;;;3.08;2.55;;;;;;;9.97;84.76;99215.56;1786370;79;21091;-81
2022/10/04 12:42:55;;;;;;;5.85;3.15;;;;;;;10.02;84.36;99220.33;1791853;79;21052;-78
2022/10/04 12:45:46;;;;;;;;;;;;;;;10.02;84.10;99214.54;1749470;79;21049;-80
2022/10/04 12:49:11;;;;;;;5.35;2.80;;;;;;;9.99;83.56;99225.50;1734225;81;20153;-80
2022/10/04 12:51:53;;;;;;;5.03;2.67;;;;;;;10.01;83.15;99239.92;1697255;82;21549;-81
2022/10/04 12:54:37;;;;;;;4.42;3.10;;;;;;;9.97;82.79;99240.77;1710163;82;21216;-76
2022/10/04 12:57:46;;;;;;;3.33;2.60;;;;;;;9.90;83.66;99257.57;1741192;81;21080;-74
2022/10/04 13:00:21;;;;;;;5.60;2.87;;;;;;;9.85;84.46;99256.78;1741360;80;21010;-78
2022/10/04 13:03:21;;;;;;;3.37;2.85;;;;;;;9.82;84.63;99255.80;1741899;80;21090;-73
2022/10/04 13:06:18;;;;;;;3.22;2.83;;;;;;;9.75;85.69;99252.17;1741090;80;21112;-75
2022/10/04 13:09:02;;;;;;;3.52;3.02;;;;;;;9.77;86.29;99255.00;1739729;80;21087;-73
2022/10/04 13:11:59;;;;;;;5.87;3.10;;;;;;;9.71;86.48;99258.84;1743645;80;21048;-76